sensor_id;sensor_type;location;lat;lon;timestamp;pressure;altitude;pressure_sealevel;temperature;humidity
53340;BME280;46212;50.258;19.062;2024-03-02T00:02:07;97836.72;;;8.37;100.00
53340;BME280;46212;50.258;19.062;2024-03-02T00:04:33;97826.44;;;8.01;100.00
53340;BME280;46212;50.258;19.062;2024-03-02T00:06:58;97823.22;;;7.93;100.00
53340;BME280;46212;50.258;19.062;2024-03-02T00:09:24;97818.13;;;7.56;100.00
53340;BME280;46212;50.258;19.062;2024-03-02T00:11:50;97819.13;;;7.40;100.00
53340;BME280;46212;50.258;19.062;2024-03-02T00:14:16;97825.91;;;7.57;100.00
53340;BME280;46212;50.258;19.062;2024-03-02T00:16:42;97837.06;;;7.63;100.00
53340;BME280;46212;50.258;19.062;2024-03-02T00:19:08;97841.50;;;7.60;100.00
53340;BME280;46212;50.258;19.062;2024-03-02T00:21:34;97835.78;;;7.45;100.00
53340;BME280;46212;50.258;19.062;2024-03-02T00:24:01;97845.19;;;7.26;100.00
53340;BME280;46212;50.258;19.062;2024-03-02T00:26:32;97837.03;;;7.14;100.00
53340;BME280;46212;50.258;19.062;2024-03-02T00:28:59;97839.78;;;7.44;100.00
53340;BME280;46212;50.258;19.062;2024-03-02T00:31:25;97849.53;;;7.45;100.00
53340;BME280;46212;50.258;19.062;2024-03-02T00:33:51;97842.03;;;7.37;100.00
53340;BME280;46212;50.258;19.062;2024-03-02T00:36:25;97847.88;;;7.48;100.00
53340;BME280;46212;50.258;19.062;2024-03-02T00:38:53;97839.66;;;7.66;100.00
53340;BME280;46212;50.258;19.062;2024-03-02T00:41:24;97830.28;;;7.45;100.00
53340;BME280;46212;50.258;19.062;2024-03-02T00:44:03;97839.19;;;7.10;100.00
53340;BME280;46212;50.258;19.062;2024-03-02T00:46:36;97835.56;;;7.22;100.00
53340;BME280;46212;50.258;19.062;2024-03-02T00:49:12;97834.69;;;7.34;100.00
53340;BME280;46212;50.258;19.062;2024-03-02T00:51:46;97838.16;;;7.25;100.00
53340;BME280;46212;50.258;19.062;2024-03-02T00:54:14;97835.50;;;7.04;100.00
53340;BME280;46212;50.258;19.062;2024-03-02T00:56:41;97840.16;;;7.25;100.00
53340;BME280;46212;50.258;19.062;2024-03-02T00:59:07;97837.91;;;7.32;100.00
53340;BME280;46212;50.258;19.062;2024-03-02T01:01:34;97834.09;;;7.39;100.00
53340;BME280;46212;50.258;19.062;2024-03-02T01:03:59;97841.94;;;7.68;100.00
53340;BME280;46212;50.258;19.062;2024-03-02T01:06:25;97833.28;;;7.87;100.00
53340;BME280;46212;50.258;19.062;2024-03-02T01:08:50;97830.22;;;7.67;100.00
53340;BME280;46212;50.258;19.062;2024-03-02T01:11:17;97833.88;;;7.64;100.00
53340;BME280;46212;50.258;19.062;2024-03-02T01:13:44;97820.72;;;7.59;100.00
53340;BME280;46212;50.258;19.062;2024-03-02T01:16:09;97824.34;;;7.47;100.00
53340;BME280;46212;50.258;19.062;2024-03-02T01:18:35;97818.69;;;7.41;100.00
53340;BME280;46212;50.258;19.062;2024-03-02T01:21:00;97824.53;;;7.62;100.00
53340;BME280;46212;50.258;19.062;2024-03-02T01:23:26;97815.38;;;7.65;100.00
53340;BME280;46212;50.258;19.062;2024-03-02T01:25:52;97822.28;;;7.69;100.00
53340;BME280;46212;50.258;19.062;2024-03-02T01:28:19;97813.38;;;7.47;100.00
53340;BME280;46212;50.258;19.062;2024-03-02T01:30:46;97810.88;;;7.31;100.00
53340;BME280;46212;50.258;19.062;2024-03-02T01:33:11;97812.94;;;7.09;100.00
53340;BME280;46212;50.258;19.062;2024-03-02T01:35:37;97814.66;;;7.24;100.00
53340;BME280;46212;50.258;19.062;2024-03-02T01:38:03;97805.25;;;7.34;100.00
53340;BME280;46212;50.258;19.062;2024-03-02T01:40:28;97808.44;;;7.33;100.00
53340;BME280;46212;50.258;19.062;2024-03-02T01:42:54;97814.22;;;7.26;100.00
53340;BME280;46212;50.258;19.062;2024-03-02T01:45:20;97804.75;;;7.27;100.00
53340;BME280;46212;50.258;19.062;2024-03-02T01:47:45;97800.50;;;7.26;100.00
53340;BME280;46212;50.258;19.062;2024-03-02T01:50:11;97799.13;;;7.30;100.00
53340;BME280;46212;50.258;19.062;2024-03-02T01:52:37;97800.19;;;7.33;100.00
53340;BME280;46212;50.258;19.062;2024-03-02T01:55:03;97791.69;;;7.49;100.00
53340;BME280;46212;50.258;19.062;2024-03-02T01:57:29;97789.91;;;7.64;100.00
53340;BME280;46212;50.258;19.062;2024-03-02T01:59:55;97791.25;;;7.51;100.00
53340;BME280;46212;50.258;19.062;2024-03-02T02:02:21;97785.63;;;7.54;100.00
53340;BME280;46212;50.258;19.062;2024-03-02T02:04:46;97789.91;;;7.64;100.00
53340;BME280;46212;50.258;19.062;2024-03-02T02:07:12;97796.88;;;7.47;100.00
53340;BME280;46212;50.258;19.062;2024-03-02T02:09:42;97791.09;;;7.45;100.00
53340;BME280;46212;50.258;19.062;2024-03-02T02:12:07;97786.19;;;7.40;100.00
53340;BME280;46212;50.258;19.062;2024-03-02T02:14:33;97781.00;;;7.42;100.00
53340;BME280;46212;50.258;19.062;2024-03-02T02:16:59;97774.53;;;7.27;100.00
53340;BME280;46212;50.258;19.062;2024-03-02T02:19:25;97774.06;;;7.19;100.00
53340;BME280;46212;50.258;19.062;2024-03-02T02:21:50;97774.25;;;7.25;100.00
53340;BME280;46212;50.258;19.062;2024-03-02T02:24:15;97775.16;;;7.22;100.00
53340;BME280;46212;50.258;19.062;2024-03-02T02:26:41;97771.19;;;7.23;100.00
53340;BME280;46212;50.258;19.062;2024-03-02T02:29:06;97768.13;;;7.21;100.00
53340;BME280;46212;50.258;19.062;2024-03-02T02:31:41;97774.63;;;7.05;100.00
53340;BME280;46212;50.258;19.062;2024-03-02T02:34:07;97777.66;;;6.98;100.00
53340;BME280;46212;50.258;19.062;2024-03-02T02:36:39;97778.56;;;6.95;100.00
53340;BME280;46212;50.258;19.062;2024-03-02T02:39:07;97772.69;;;7.15;100.00
53340;BME280;46212;50.258;19.062;2024-03-02T02:41:36;97777.03;;;6.94;100.00
53340;BME280;46212;50.258;19.062;2024-03-02T02:44:01;97770.91;;;6.90;100.00
53340;BME280;46212;50.258;19.062;2024-03-02T02:46:26;97773.84;;;7.05;100.00
53340;BME280;46212;50.258;19.062;2024-03-02T02:48:52;97767.66;;;6.82;100.00
53340;BME280;46212;50.258;19.062;2024-03-02T02:51:18;97773.28;;;7.10;100.00
53340;BME280;46212;50.258;19.062;2024-03-02T02:53:43;97776.19;;;7.15;100.00
53340;BME280;46212;50.258;19.062;2024-03-02T02:56:09;97783.41;;;7.31;100.00
53340;BME280;46212;50.258;19.062;2024-03-02T02:58:34;97772.88;;;7.29;100.00
53340;BME280;46212;50.258;19.062;2024-03-02T03:01:00;97774.28;;;7.43;100.00
53340;BME280;46212;50.258;19.062;2024-03-02T03:03:26;97771.09;;;7.44;100.00
53340;BME280;46212;50.258;19.062;2024-03-02T03:05:51;97766.19;;;7.39;100.00
53340;BME280;46212;50.258;19.062;2024-03-02T03:08:17;97774.56;;;7.36;100.00
53340;BME280;46212;50.258;19.062;2024-03-02T03:10:42;97777.09;;;7.12;100.00
53340;BME280;46212;50.258;19.062;2024-03-02T03:13:07;97780.38;;;7.29;100.00
53340;BME280;46212;50.258;19.062;2024-03-02T03:15:36;97792.59;;;6.97;100.00
53340;BME280;46212;50.258;19.062;2024-03-02T03:18:04;97780.72;;;7.00;100.00
53340;BME280;46212;50.258;19.062;2024-03-02T03:20:30;97772.81;;;7.11;100.00
53340;BME280;46212;50.258;19.062;2024-03-02T03:22:56;97772.69;;;7.15;100.00
53340;BME280;46212;50.258;19.062;2024-03-02T03:25:22;97781.00;;;6.93;100.00
53340;BME280;46212;50.258;19.062;2024-03-02T03:27:48;97775.19;;;6.91;100.00
53340;BME280;46212;50.258;19.062;2024-03-02T03:30:13;97768.50;;;7.01;100.00
53340;BME280;46212;50.258;19.062;2024-03-02T03:32:39;97773.88;;;7.14;100.00
53340;BME280;46212;50.258;19.062;2024-03-02T03:35:05;97774.66;;;7.14;100.00
53340;BME280;46212;50.258;19.062;2024-03-02T03:37:31;97779.09;;;7.21;100.00
53340;BME280;46212;50.258;19.062;2024-03-02T03:39:59;97779.53;;;7.10;100.00
53340;BME280;46212;50.258;19.062;2024-03-02T03:42:24;97778.44;;;7.08;100.00
53340;BME280;46212;50.258;19.062;2024-03-02T03:44:50;97783.34;;;7.13;100.00
53340;BME280;46212;50.258;19.062;2024-03-02T03:47:15;97782.84;;;6.96;100.00
53340;BME280;46212;50.258;19.062;2024-03-02T03:49:42;97779.00;;;6.93;100.00
53340;BME280;46212;50.258;19.062;2024-03-02T03:52:07;97780.28;;;7.11;100.00
53340;BME280;46212;50.258;19.062;2024-03-02T03:54:33;97777.91;;;7.22;100.00
53340;BME280;46212;50.258;19.062;2024-03-02T03:56:58;97784.22;;;7.01;100.00
53340;BME280;46212;50.258;19.062;2024-03-02T03:59:23;97762.34;;;7.28;100.00
53340;BME280;46212;50.258;19.062;2024-03-02T04:01:49;97769.50;;;7.16;100.00
53340;BME280;46212;50.258;19.062;2024-03-02T04:04:14;97766.41;;;7.14;100.00
53340;BME280;46212;50.258;19.062;2024-03-02T04:06:40;97769.41;;;7.38;100.00
53340;BME280;46212;50.258;19.062;2024-03-02T04:09:05;97759.31;;;7.35;100.00
53340;BME280;46212;50.258;19.062;2024-03-02T04:11:31;97762.72;;;7.66;100.00
53340;BME280;46212;50.258;19.062;2024-03-02T04:13:56;97765.13;;;7.46;100.00
53340;BME280;46212;50.258;19.062;2024-03-02T04:16:21;97774.59;;;6.96;100.00
53340;BME280;46212;50.258;19.062;2024-03-02T04:18:47;97757.75;;;7.16;100.00
53340;BME280;46212;50.258;19.062;2024-03-02T04:21:12;97779.00;;;6.93;100.00
53340;BME280;46212;50.258;19.062;2024-03-02T04:23:38;97780.06;;;6.87;100.00
53340;BME280;46212;50.258;19.062;2024-03-02T04:26:03;97781.63;;;6.97;100.00
53340;BME280;46212;50.258;19.062;2024-03-02T04:28:29;97783.91;;;6.68;100.00
53340;BME280;46212;50.258;19.062;2024-03-02T04:30:54;97776.94;;;6.76;100.00
53340;BME280;46212;50.258;19.062;2024-03-02T04:33:20;97774.81;;;6.80;100.00
53340;BME280;46212;50.258;19.062;2024-03-02T04:35:45;97778.78;;;6.79;100.00
53340;BME280;46212;50.258;19.062;2024-03-02T04:38:11;97779.31;;;6.95;100.00
53340;BME280;46212;50.258;19.062;2024-03-02T04:40:37;97785.84;;;6.89;100.00
53340;BME280;46212;50.258;19.062;2024-03-02T04:43:02;97786.50;;;7.02;100.00
53340;BME280;46212;50.258;19.062;2024-03-02T04:45:29;97780.63;;;6.82;100.00
53340;BME280;46212;50.258;19.062;2024-03-02T04:47:54;97772.59;;;6.87;100.00
53340;BME280;46212;50.258;19.062;2024-03-02T04:50:20;97780.53;;;6.94;100.00
53340;BME280;46212;50.258;19.062;2024-03-02T04:52:45;97788.63;;;6.67;100.00
53340;BME280;46212;50.258;19.062;2024-03-02T04:55:10;97786.75;;;6.55;100.00
53340;BME280;46212;50.258;19.062;2024-03-02T04:57:56;97777.66;;;6.36;100.00
53340;BME280;46212;50.258;19.062;2024-03-02T05:00:24;97786.19;;;6.38;100.00
53340;BME280;46212;50.258;19.062;2024-03-02T05:02:49;97776.94;;;6.23;100.00
53340;BME280;46212;50.258;19.062;2024-03-02T05:05:16;97785.09;;;6.36;100.00
53340;BME280;46212;50.258;19.062;2024-03-02T05:07:42;97777.22;;;6.47;100.00
53340;BME280;46212;50.258;19.062;2024-03-02T05:10:09;97782.94;;;6.53;100.00
53340;BME280;46212;50.258;19.062;2024-03-02T05:12:34;97767.59;;;6.64;100.00
53340;BME280;46212;50.258;19.062;2024-03-02T05:15:09;97793.88;;;6.74;100.00
53340;BME280;46212;50.258;19.062;2024-03-02T05:17:36;97796.28;;;6.72;100.00
53340;BME280;46212;50.258;19.062;2024-03-02T05:20:02;97804.44;;;6.32;100.00
53340;BME280;46212;50.258;19.062;2024-03-02T05:22:29;97802.88;;;6.31;100.00
53340;BME280;46212;50.258;19.062;2024-03-02T05:24:54;97802.69;;;6.26;100.00
53340;BME280;46212;50.258;19.062;2024-03-02T05:27:19;97807.03;;;6.36;100.00
53340;BME280;46212;50.258;19.062;2024-03-02T05:29:45;97807.22;;;6.41;100.00
53340;BME280;46212;50.258;19.062;2024-03-02T05:32:10;97810.41;;;6.62;100.00
53340;BME280;46212;50.258;19.062;2024-03-02T05:34:36;97809.69;;;6.70;100.00
53340;BME280;46212;50.258;19.062;2024-03-02T05:37:01;97811.56;;;6.82;100.00
53340;BME280;46212;50.258;19.062;2024-03-02T05:39:27;97813.56;;;6.82;100.00
53340;BME280;46212;50.258;19.062;2024-03-02T05:41:52;97817.78;;;6.74;100.00
53340;BME280;46212;50.258;19.062;2024-03-02T05:44:17;97818.59;;;6.83;100.00
53340;BME280;46212;50.258;19.062;2024-03-02T05:46:44;97822.50;;;6.73;100.00
53340;BME280;46212;50.258;19.062;2024-03-02T05:49:09;97820.44;;;6.56;100.00
53340;BME280;46212;50.258;19.062;2024-03-02T05:51:35;97822.06;;;6.75;100.00
53340;BME280;46212;50.258;19.062;2024-03-02T05:54:00;97814.97;;;6.86;100.00
53340;BME280;46212;50.258;19.062;2024-03-02T05:56:26;97820.75;;;6.88;100.00
53340;BME280;46212;50.258;19.062;2024-03-02T05:58:51;97828.41;;;6.93;100.00
53340;BME280;46212;50.258;19.062;2024-03-02T06:01:37;97826.16;;;7.01;100.00
53340;BME280;46212;50.258;19.062;2024-03-02T06:04:02;97824.97;;;7.11;100.00
53340;BME280;46212;50.258;19.062;2024-03-02T06:06:28;97822.47;;;7.26;100.00
53340;BME280;46212;50.258;19.062;2024-03-02T06:08:53;97829.13;;;7.16;100.00
53340;BME280;46212;50.258;19.062;2024-03-02T06:11:19;97825.44;;;7.10;100.00
53340;BME280;46212;50.258;19.062;2024-03-02T06:13:45;97832.19;;;7.18;100.00
53340;BME280;46212;50.258;19.062;2024-03-02T06:16:10;97829.13;;;7.16;100.00
53340;BME280;46212;50.258;19.062;2024-03-02T06:18:36;97832.59;;;7.07;100.00
53340;BME280;46212;50.258;19.062;2024-03-02T06:21:01;97840.69;;;7.11;100.00
53340;BME280;46212;50.258;19.062;2024-03-02T06:23:27;97839.75;;;7.05;100.00
53340;BME280;46212;50.258;19.062;2024-03-02T06:25:52;97844.97;;;7.12;100.00
53340;BME280;46212;50.258;19.062;2024-03-02T06:28:18;97841.31;;;7.15;100.00
53340;BME280;46212;50.258;19.062;2024-03-02T06:30:44;97841.38;;;7.33;100.00
53340;BME280;46212;50.258;19.062;2024-03-02T06:33:10;97839.66;;;7.66;100.00
53340;BME280;46212;50.258;19.062;2024-03-02T06:35:36;97843.31;;;7.63;100.00
53340;BME280;46212;50.258;19.062;2024-03-02T06:38:01;97849.13;;;7.65;100.00
53340;BME280;46212;50.258;19.062;2024-03-02T06:40:27;97842.56;;;7.63;100.00
53340;BME280;46212;50.258;19.062;2024-03-02T06:42:52;97839.53;;;7.70;100.00
53340;BME280;46212;50.258;19.062;2024-03-02T06:45:17;97838.16;;;7.74;100.00
53340;BME280;46212;50.258;19.062;2024-03-02T06:47:43;97841.22;;;7.67;100.00
53340;BME280;46212;50.258;19.062;2024-03-02T06:50:09;97832.22;;;7.76;100.00
53340;BME280;46212;50.258;19.062;2024-03-02T06:52:35;97836.97;;;7.93;100.00
53340;BME280;46212;50.258;19.062;2024-03-02T06:55:00;97840.63;;;7.99;100.00
53340;BME280;46212;50.258;19.062;2024-03-02T06:57:26;97841.88;;;8.08;100.00
53340;BME280;46212;50.258;19.062;2024-03-02T06:59:51;97836.09;;;8.33;100.00
53340;BME280;46212;50.258;19.062;2024-03-02T07:02:20;97837.94;;;8.36;100.00
53340;BME280;46212;50.258;19.062;2024-03-02T07:04:46;97839.91;;;8.44;100.00
53340;BME280;46212;50.258;19.062;2024-03-02T07:07:12;97857.03;;;8.48;100.00
53340;BME280;46212;50.258;19.062;2024-03-02T07:09:37;97851.38;;;8.61;100.00
53340;BME280;46212;50.258;19.062;2024-03-02T07:12:03;97858.97;;;8.75;100.00
53340;BME280;46212;50.258;19.062;2024-03-02T07:14:28;97854.09;;;8.79;100.00
53340;BME280;46212;50.258;19.062;2024-03-02T07:17:12;97840.31;;;8.79;100.00
53340;BME280;46212;50.258;19.062;2024-03-02T07:19:38;97849.31;;;8.89;100.00
53340;BME280;46212;50.258;19.062;2024-03-02T07:22:07;97851.28;;;8.97;100.00
53340;BME280;46212;50.258;19.062;2024-03-02T07:24:42;97854.97;;;8.94;100.00
53340;BME280;46212;50.258;19.062;2024-03-02T07:27:11;97859.09;;;8.99;99.93
53340;BME280;46212;50.258;19.062;2024-03-02T07:29:37;97869.50;;;8.95;100.00
53340;BME280;46212;50.258;19.062;2024-03-02T07:32:04;97870.72;;;9.03;100.00
53340;BME280;46212;50.258;19.062;2024-03-02T07:34:29;97870.41;;;9.01;100.00
53340;BME280;46212;50.258;19.062;2024-03-02T07:36:55;97869.72;;;9.24;100.00
53340;BME280;46212;50.258;19.062;2024-03-02T07:39:21;97868.31;;;9.38;99.82
53340;BME280;46212;50.258;19.062;2024-03-02T07:41:49;97856.50;;;9.37;100.00
53340;BME280;46212;50.258;19.062;2024-03-02T07:44:15;97868.88;;;9.42;100.00
53340;BME280;46212;50.258;19.062;2024-03-02T07:46:43;97864.47;;;9.44;100.00
53340;BME280;46212;50.258;19.062;2024-03-02T07:49:09;97879.91;;;9.51;100.00
53340;BME280;46212;50.258;19.062;2024-03-02T07:51:34;97874.84;;;9.82;99.37
53340;BME280;46212;50.258;19.062;2024-03-02T07:54:00;97882.63;;;9.84;98.03
53340;BME280;46212;50.258;19.062;2024-03-02T07:56:25;97877.81;;;9.93;98.05
53340;BME280;46212;50.258;19.062;2024-03-02T07:58:51;97869.53;;;9.93;97.64
53340;BME280;46212;50.258;19.062;2024-03-02T08:01:17;97878.19;;;10.10;97.05
53340;BME280;46212;50.258;19.062;2024-03-02T08:03:43;97874.66;;;10.09;95.88
53340;BME280;46212;50.258;19.062;2024-03-02T08:06:14;97884.16;;;10.18;95.83
53340;BME280;46212;50.258;19.062;2024-03-02T08:08:40;97882.94;;;10.09;96.74
53340;BME280;46212;50.258;19.062;2024-03-02T08:11:05;97883.94;;;10.21;96.85
53340;BME280;46212;50.258;19.062;2024-03-02T08:13:31;97888.47;;;10.33;96.97
53340;BME280;46212;50.258;19.062;2024-03-02T08:15:56;97888.91;;;10.17;96.68
53340;BME280;46212;50.258;19.062;2024-03-02T08:18:22;97891.63;;;10.41;96.77
53340;BME280;46212;50.258;19.062;2024-03-02T08:20:47;97894.91;;;10.54;96.24
53340;BME280;46212;50.258;19.062;2024-03-02T08:23:13;97886.84;;;10.65;94.92
53340;BME280;46212;50.258;19.062;2024-03-02T08:25:38;97884.75;;;10.75;93.57
53340;BME280;46212;50.258;19.062;2024-03-02T08:28:04;97894.59;;;10.90;93.35
53340;BME280;46212;50.258;19.062;2024-03-02T08:30:29;97893.91;;;10.81;93.65
53340;BME280;46212;50.258;19.062;2024-03-02T08:32:55;97897.44;;;11.10;92.40
53340;BME280;46212;50.258;19.062;2024-03-02T08:35:20;97891.75;;;11.29;90.83
53340;BME280;46212;50.258;19.062;2024-03-02T08:37:47;97894.00;;;11.30;90.54
53340;BME280;46212;50.258;19.062;2024-03-02T08:40:13;97888.88;;;11.38;90.68
53340;BME280;46212;50.258;19.062;2024-03-02T08:42:39;97900.66;;;11.53;89.31
53340;BME280;46212;50.258;19.062;2024-03-02T08:45:04;97906.13;;;11.47;89.46
53340;BME280;46212;50.258;19.062;2024-03-02T08:47:31;97904.59;;;11.46;90.04
53340;BME280;46212;50.258;19.062;2024-03-02T08:49:56;97891.81;;;11.34;91.44
53340;BME280;46212;50.258;19.062;2024-03-02T08:52:21;97890.28;;;11.48;91.54
53340;BME280;46212;50.258;19.062;2024-03-02T08:54:47;97894.88;;;11.22;91.07
53340;BME280;46212;50.258;19.062;2024-03-02T08:57:12;97915.47;;;11.50;90.29
53340;BME280;46212;50.258;19.062;2024-03-02T08:59:38;97911.88;;;11.64;89.25
53340;BME280;46212;50.258;19.062;2024-03-02T09:02:04;97913.84;;;11.43;89.74
53340;BME280;46212;50.258;19.062;2024-03-02T09:04:29;97907.06;;;11.44;90.47
53340;BME280;46212;50.258;19.062;2024-03-02T09:06:55;97915.38;;;11.44;89.05
53340;BME280;46212;50.258;19.062;2024-03-02T09:09:20;97919.28;;;11.38;89.08
53340;BME280;46212;50.258;19.062;2024-03-02T09:11:46;97919.47;;;11.19;91.42
53340;BME280;46212;50.258;19.062;2024-03-02T09:14:12;97915.56;;;10.97;90.98
53340;BME280;46212;50.258;19.062;2024-03-02T09:16:37;97916.41;;;11.03;91.54
53340;BME280;46212;50.258;19.062;2024-03-02T09:19:03;97909.47;;;11.22;90.92
53340;BME280;46212;50.258;19.062;2024-03-02T09:21:28;97911.38;;;11.16;91.76
53340;BME280;46212;50.258;19.062;2024-03-02T09:23:55;97907.66;;;11.19;91.39
53340;BME280;46212;50.258;19.062;2024-03-02T09:26:20;97909.66;;;11.33;90.88
53340;BME280;46212;50.258;19.062;2024-03-02T09:28:46;97915.56;;;11.41;90.17
53340;BME280;46212;50.258;19.062;2024-03-02T09:31:11;97926.31;;;11.39;90.21
53340;BME280;46212;50.258;19.062;2024-03-02T09:33:37;97913.66;;;11.47;89.96
53340;BME280;46212;50.258;19.062;2024-03-02T09:36:04;97922.69;;;11.33;89.89
53340;BME280;46212;50.258;19.062;2024-03-02T09:38:32;97925.47;;;11.18;90.72
53340;BME280;46212;50.258;19.062;2024-03-02T09:40:58;97925.06;;;10.96;91.58
53340;BME280;46212;50.258;19.062;2024-03-02T09:43:24;97932.72;;;11.15;90.45
53340;BME280;46212;50.258;19.062;2024-03-02T09:45:50;97924.59;;;11.27;90.18
53340;BME280;46212;50.258;19.062;2024-03-02T09:48:16;97928.72;;;11.31;90.26
53340;BME280;46212;50.258;19.062;2024-03-02T09:50:43;97925.19;;;11.16;90.70
53340;BME280;46212;50.258;19.062;2024-03-02T09:53:10;97931.09;;;11.24;90.25
53340;BME280;46212;50.258;19.062;2024-03-02T09:55:37;97931.78;;;11.18;89.91
53340;BME280;46212;50.258;19.062;2024-03-02T09:58:03;97937.00;;;11.16;90.60
53340;BME280;46212;50.258;19.062;2024-03-02T10:00:28;97925.66;;;11.14;91.36
53340;BME280;46212;50.258;19.062;2024-03-02T10:02:53;97943.31;;;11.32;90.66
53340;BME280;46212;50.258;19.062;2024-03-02T10:05:24;97926.81;;;11.37;90.11
53340;BME280;46212;50.258;19.062;2024-03-02T10:08:03;97930.44;;;11.43;89.06
53340;BME280;46212;50.258;19.062;2024-03-02T10:10:39;97922.91;;;11.44;89.50
53340;BME280;46212;50.258;19.062;2024-03-02T10:13:10;97931.78;;;11.48;90.07
53340;BME280;46212;50.258;19.062;2024-03-02T10:15:36;97923.47;;;11.48;89.56
53340;BME280;46212;50.258;19.062;2024-03-02T10:18:03;97924.97;;;11.49;90.47
53340;BME280;46212;50.258;19.062;2024-03-02T10:20:29;97924.81;;;11.38;90.67
53340;BME280;46212;50.258;19.062;2024-03-02T10:23:13;97921.63;;;11.45;90.32
53340;BME280;46212;50.258;19.062;2024-03-02T10:25:39;97921.91;;;11.61;89.08
53340;BME280;46212;50.258;19.062;2024-03-02T10:28:05;97932.03;;;11.64;89.52
53340;BME280;46212;50.258;19.062;2024-03-02T10:30:31;97933.84;;;11.53;90.22
53340;BME280;46212;50.258;19.062;2024-03-02T10:32:57;97937.28;;;11.62;89.48
53340;BME280;46212;50.258;19.062;2024-03-02T10:35:22;97932.22;;;11.61;89.07
53340;BME280;46212;50.258;19.062;2024-03-02T10:37:52;97937.75;;;11.61;89.07
53340;BME280;46212;50.258;19.062;2024-03-02T10:40:18;97938.34;;;11.36;90.39
53340;BME280;46212;50.258;19.062;2024-03-02T10:42:45;97941.88;;;11.51;90.99
53340;BME280;46212;50.258;19.062;2024-03-02T10:45:10;97941.84;;;11.65;90.76
53340;BME280;46212;50.258;19.062;2024-03-02T10:47:37;97933.81;;;11.67;90.53
53340;BME280;46212;50.258;19.062;2024-03-02T10:50:04;97935.34;;;11.83;90.16
53340;BME280;46212;50.258;19.062;2024-03-02T10:52:39;97942.69;;;11.86;91.20
53340;BME280;46212;50.258;19.062;2024-03-02T10:55:09;97935.91;;;11.87;91.18
53340;BME280;46212;50.258;19.062;2024-03-02T11:00:13;97940.81;;;11.63;91.55
53340;BME280;46212;50.258;19.062;2024-03-02T11:02:43;97940.63;;;11.52;91.25
53340;BME280;46212;50.258;19.062;2024-03-02T11:05:13;97938.69;;;11.58;91.37
53340;BME280;46212;50.258;19.062;2024-03-02T11:07:44;97938.34;;;11.50;90.18
53340;BME280;46212;50.258;19.062;2024-03-02T11:10:10;97941.19;;;11.56;90.11
53340;BME280;46212;50.258;19.062;2024-03-02T11:12:39;97939.00;;;11.60;90.48
53340;BME280;46212;50.258;19.062;2024-03-02T11:15:10;97941.59;;;11.34;89.84
53340;BME280;46212;50.258;19.062;2024-03-02T11:17:38;97931.47;;;11.46;89.87
53340;BME280;46212;50.258;19.062;2024-03-02T11:20:06;97932.31;;;11.52;90.77
53340;BME280;46212;50.258;19.062;2024-03-02T11:22:35;97927.94;;;11.60;91.06
53340;BME280;46212;50.258;19.062;2024-03-02T11:25:01;97928.78;;;11.81;90.61
53340;BME280;46212;50.258;19.062;2024-03-02T11:32:58;97925.47;;;12.32;89.68
53340;BME280;46212;50.258;19.062;2024-03-02T11:35:27;97911.75;;;12.63;88.29
53340;BME280;46212;50.258;19.062;2024-03-02T11:37:54;97919.81;;;12.61;88.00
53340;BME280;46212;50.258;19.062;2024-03-02T11:40:23;97912.44;;;12.78;88.01
53340;BME280;46212;50.258;19.062;2024-03-02T11:42:49;97912.28;;;12.87;88.84
53340;BME280;46212;50.258;19.062;2024-03-02T11:45:23;97904.50;;;12.91;88.64
53340;BME280;46212;50.258;19.062;2024-03-02T11:47:57;97917.53;;;12.85;88.12
53340;BME280;46212;50.258;19.062;2024-03-02T11:50:29;97914.25;;;13.07;87.81
53340;BME280;46212;50.258;19.062;2024-03-02T11:52:56;97904.75;;;13.13;87.51
53340;BME280;46212;50.258;19.062;2024-03-02T11:55:21;97906.56;;;13.16;87.15
53340;BME280;46212;50.258;19.062;2024-03-02T11:57:48;97904.19;;;13.35;87.74
53340;BME280;46212;50.258;19.062;2024-03-02T12:00:18;97905.75;;;13.42;86.43
53340;BME280;46212;50.258;19.062;2024-03-02T12:02:46;97904.38;;;13.26;86.22
53340;BME280;46212;50.258;19.062;2024-03-02T12:05:15;97894.53;;;13.25;85.04
53340;BME280;46212;50.258;19.062;2024-03-02T12:07:42;97906.38;;;13.25;85.75
53340;BME280;46212;50.258;19.062;2024-03-02T12:10:08;97904.97;;;13.10;84.74
53340;BME280;46212;50.258;19.062;2024-03-02T12:12:34;97896.56;;;13.04;84.81
53340;BME280;46212;50.258;19.062;2024-03-02T12:14:59;97900.50;;;12.92;85.00
53340;BME280;46212;50.258;19.062;2024-03-02T12:17:26;97897.50;;;12.96;85.51
53340;BME280;46212;50.258;19.062;2024-03-02T12:19:51;97901.72;;;13.11;86.09
53340;BME280;46212;50.258;19.062;2024-03-02T12:22:18;97892.91;;;13.13;85.90
53340;BME280;46212;50.258;19.062;2024-03-02T12:24:44;97896.97;;;12.92;86.14
53340;BME280;46212;50.258;19.062;2024-03-02T12:27:14;97891.63;;;12.88;86.37
53340;BME280;46212;50.258;19.062;2024-03-02T12:29:40;97889.56;;;12.83;87.55
53340;BME280;46212;50.258;19.062;2024-03-02T12:32:06;97884.63;;;12.93;86.99
53340;BME280;46212;50.258;19.062;2024-03-02T12:34:32;97894.94;;;13.12;85.05
53340;BME280;46212;50.258;19.062;2024-03-02T12:36:58;97884.94;;;13.00;85.84
53340;BME280;46212;50.258;19.062;2024-03-02T12:39:23;97897.50;;;13.16;85.42
53340;BME280;46212;50.258;19.062;2024-03-02T12:41:50;97882.78;;;13.10;85.59
53340;BME280;46212;50.258;19.062;2024-03-02T12:44:16;97889.84;;;12.85;85.89
53340;BME280;46212;50.258;19.062;2024-03-02T12:46:41;97888.09;;;12.88;85.46
53340;BME280;46212;50.258;19.062;2024-03-02T12:49:12;97894.44;;;12.68;86.93
53340;BME280;46212;50.258;19.062;2024-03-02T12:51:42;97876.69;;;12.80;86.90
53340;BME280;46212;50.258;19.062;2024-03-02T12:54:10;97887.13;;;13.16;85.26
53340;BME280;46212;50.258;19.062;2024-03-02T12:56:36;97887.34;;;12.87;85.80